Oakdale, Minnesota
Current Conditions -  °F | °C
As of 12:51 AM on Thursday 27 Nov 2014 (Local Time) from K21D Reporting Station
Clear Clear  
Wind Chill:   Ceiling: Unl
Heat Index: 10°   Visibility: 10mi
Dew Point:   Wind: 7mph
Humidity: 62%   Direction: 340°NNW
Pressure: 30.41"   Gusts: NA
Location:  44.97°N, 92.96°W
Report Text: K21D 270651Z AUTO 34006KT 10SM CLR M12/M18 A3041 RMK AO2
Loading
Personal Weather Stations






























Interactive Weather Map New forecast layout! Learn more

10-Day Weather Forecast

Advertisements
Track Severe Weather on mobile